Hilliard, Florida
Current Conditions -  °F | °C
As of 9:56 PM on Monday 22 Dec 2014 (Local Time) from KJAX Reporting Station
Thunderstorm Thunderstorm  
Wind Chill: 64°   Ceiling: 400
Heat Index: 64°   Visibility: 10mi
Dew Point: 64°   Wind: 5mph
Humidity: 100%   Direction: 50°NE
Pressure: 29.92"   Gusts: NA
Location:  30.69°N, 81.92°W
Report Text: KJAX 230256Z 05004KT 10SM TS BKN004 OVC018CB 18/18 A2992 RMK AO2 RAE14 TSB38 SLP133 OCNL LTGICCCCG VC S TS VC S MOV NE P0003 60028 T01780178 50005
Loading
Personal Weather Stations






























Interactive Weather Map New forecast layout! Learn more

10-Day Weather Forecast

Advertisements
Track Severe Weather on mobile